Tropical Cyclones
[Index]
Main Index Home Page Stock Weather Photos Extreme Storms Discussion Storm News and Storm Chasing Reports Tropical Cyclones / Hurricanes / Typhoons Weather Data and Links Wild Fires / Bushfires Weather Observation Techniques Weather Picture Catalogue Tornado Pictures and Reports Stock Video Footage and DVDs for sale
Season 1997-1998 Tropical Cyclone SUSAN Track Map
Season 1997-1998 Summaries (Operational Data): [AU] [SIO] [SPAC] [SH]
<<- Previous TC | 1997-1998 Season | Next TC ->>

click for intensity scale information  Lat/long Grid: Show Hide

 Date Labels: Show Hide

Operational Tropical Cyclone Data : JTWC Advisories

Name: SUSAN
Number: 9811

03 Jan 1998 00:00 UTC to 09 Jan 1998 18:00 UTC

    date/time    lat    long     hPa   cat  kts
1998-01-03 00   12.2   173.5     997         30          
1998-01-03 06   12.5   172.9     987    1    40          
1998-01-03 12   12.5   172.4     985    2    50          
1998-01-03 18   12.5   172.1     985    2    50          
1998-01-04 00   13.2   171.4     970    3    65          
1998-01-04 06   13.0   171.0     960    3    75          
1998-01-04 12   13.3   170.8     940    4    90          
1998-01-04 18   13.7   170.6     925    4   100          
1998-01-05 00   14.0   170.3     910    5   120          
1998-01-05 06   14.4   170.1     900    5   125          
1998-01-05 12   14.8   169.9     900    5   125          
1998-01-05 18   15.2   170.1     900    5   125          
1998-01-06 00   15.5   170.1     900    5   125          
1998-01-06 06   15.9   170.4     900    5   125          
1998-01-06 12   16.4   170.9     900    5   125          
1998-01-06 18   17.2   171.8     910    5   120          
1998-01-07 00   18.2   172.8     910    5   120          
1998-01-07 06   19.0   173.5     915    5   115          
1998-01-07 12   20.0   174.9     915    5   115          
1998-01-07 18   20.9   176.1     920    5   110          
1998-01-08 00   21.7   177.6     925    4   100          
1998-01-08 06   23.0   179.8W    935    4    90          
1998-01-08 12   24.8   178.2W    940    4    90          
1998-01-08 18   26.4   176.4W    940    4    90          
1998-01-09 00   28.3   175.1W    960    3    75          
1998-01-09 06   30.5   173.0W    963    3    70          
1998-01-09 12   34.0   169.0W    960    3    75          
1998-01-09 18   40.0   166.0W    970                     
Winds are 10-min average.

Tropical cyclone tracks developed by Michael Bath using operational warnings and advisories and Google Maps.


[Australian Severe Weather index] [Copyright Notice] [Email Contacts] [Search This Site] [Privacy Policy]
Document: tropical_cyclone_susan.htm Updated: 4 September 2016